createdAt,value
2022-09-13T00:02:23.702Z,9.32
2022-09-13T00:04:51.813Z,11.23
2022-09-13T00:07:19.792Z,10.00
2022-09-13T00:09:49.170Z,12.60
2022-09-13T00:12:17.183Z,9.68
2022-09-13T00:14:45.288Z,10.18
2022-09-13T00:17:13.339Z,10.90
2022-09-13T00:19:41.379Z,10.43
2022-09-13T00:22:09.357Z,11.30
2022-09-13T00:24:37.368Z,11.35
2022-09-13T00:27:06.836Z,12.68
2022-09-13T00:29:35.062Z,11.05
2022-09-13T00:32:03.497Z,11.18
2022-09-13T00:34:31.607Z,11.77
2022-09-13T00:36:59.597Z,11.60
2022-09-13T00:39:27.618Z,10.38
2022-09-13T00:41:55.641Z,9.60
2022-09-13T00:44:57.502Z,10.27
2022-09-13T00:47:28.437Z,11.20
2022-09-13T00:49:57.899Z,11.55
2022-09-13T00:52:26.561Z,10.15
2022-09-13T00:54:56.477Z,10.23
2022-09-13T00:57:24.529Z,8.15
2022-09-13T00:59:54.793Z,13.48
2022-09-13T01:02:24.217Z,8.68
2022-09-13T01:04:52.346Z,9.43
2022-09-13T01:07:20.390Z,10.77
2022-09-13T01:09:49.863Z,9.15
2022-09-13T01:12:20.834Z,8.10
2022-09-13T01:14:49.258Z,9.32
2022-09-13T01:17:17.349Z,9.68
2022-09-13T01:19:46.712Z,8.95
2022-09-13T01:22:51.376Z,9.40
2022-09-13T01:25:54.779Z,9.73
2022-09-13T01:28:43.584Z,8.65
2022-09-13T01:31:13.539Z,10.65
2022-09-13T01:33:52.073Z,12.18
2022-09-13T01:36:32.835Z,10.65
2022-09-13T01:39:03.090Z,27.23
2022-09-13T01:41:54.551Z,8.65
2022-09-13T01:44:30.974Z,10.80
2022-09-13T01:47:04.313Z,9.20
2022-09-13T01:49:34.210Z,9.63
2022-09-13T01:52:03.736Z,10.10
2022-09-13T01:54:34.489Z,9.55
2022-09-13T01:57:04.655Z,12.50
2022-09-13T01:59:37.825Z,18.88
2022-09-13T02:02:09.246Z,9.90
2022-09-13T02:04:38.879Z,9.00
2022-09-13T02:07:09.243Z,9.07
2022-09-13T02:09:39.658Z,10.55
2022-09-13T02:12:09.965Z,8.98
2022-09-13T02:14:39.378Z,9.27
2022-09-13T02:17:09.865Z,8.15
2022-09-13T02:19:39.421Z,8.27
2022-09-13T02:22:08.995Z,9.60
2022-09-13T02:24:38.261Z,8.65
2022-09-13T02:27:10.408Z,11.32
2022-09-13T02:29:38.737Z,8.95
2022-09-13T02:32:10.831Z,8.70
2022-09-13T02:34:40.616Z,8.30
2022-09-13T02:37:09.149Z,8.50
2022-09-13T02:39:38.072Z,10.40
2022-09-13T02:42:12.272Z,8.52
2022-09-13T02:44:42.501Z,9.10
2022-09-13T02:47:16.758Z,9.82
2022-09-13T02:49:51.591Z,6.90
2022-09-13T02:52:23.371Z,10.52
2022-09-13T02:54:53.556Z,9.63
2022-09-13T02:57:22.848Z,7.25
2022-09-13T02:59:50.930Z,7.32
2022-09-13T03:02:21.456Z,7.85
2022-09-13T03:04:50.664Z,7.05
2022-09-13T03:07:18.721Z,7.68
2022-09-13T03:09:50.055Z,7.07
2022-09-13T03:12:31.921Z,7.13
2022-09-13T03:15:05.343Z,9.18
2022-09-13T03:17:42.150Z,7.30
2022-09-13T03:20:11.951Z,10.25
2022-09-13T03:23:06.905Z,6.70
2022-09-13T03:25:43.432Z,10.88
2022-09-13T03:28:15.557Z,9.68
2022-09-13T03:30:46.070Z,7.93
2022-09-13T03:33:18.420Z,7.18
2022-09-13T03:35:49.626Z,8.07
2022-09-13T03:38:20.283Z,10.57
2022-09-13T03:40:49.981Z,8.68
2022-09-13T03:43:19.359Z,8.85
2022-09-13T03:45:49.297Z,6.90
2022-09-13T03:48:18.696Z,8.95
2022-09-13T03:50:47.141Z,7.40
2022-09-13T03:53:16.933Z,9.00
2022-09-13T03:55:44.963Z,7.45
2022-09-13T03:58:13.562Z,6.75
2022-09-13T04:00:41.668Z,7.28
2022-09-13T04:03:10.093Z,6.07
2022-09-13T04:05:39.762Z,8.57
2022-09-13T04:08:08.548Z,8.05
2022-09-13T04:10:37.788Z,7.57
2022-09-13T04:13:05.947Z,7.70
2022-09-13T04:15:34.103Z,6.18
2022-09-13T04:18:02.138Z,6.72
2022-09-13T04:20:30.417Z,6.85
2022-09-13T04:22:59.918Z,6.95
2022-09-13T04:25:28.044Z,7.65
2022-09-13T04:27:56.487Z,6.35
2022-09-13T04:30:24.929Z,7.22
2022-09-13T04:32:53.125Z,6.88
2022-09-13T04:35:21.157Z,6.63
2022-09-13T04:37:49.260Z,5.80
2022-09-13T04:40:18.937Z,6.57
2022-09-13T04:42:47.043Z,9.75
2022-09-13T04:45:15.086Z,8.40
2022-09-13T04:47:43.137Z,7.05
2022-09-13T04:50:11.297Z,6.70
2022-09-13T04:52:39.545Z,10.15
2022-09-13T04:55:08.545Z,8.25
2022-09-13T04:57:37.964Z,6.35
2022-09-13T05:00:07.133Z,9.52
2022-09-13T05:02:35.341Z,6.22
2022-09-13T05:05:03.515Z,6.68
2022-09-13T05:07:31.553Z,5.82
2022-09-13T05:09:59.996Z,6.45
2022-09-13T05:12:28.089Z,7.03
2022-09-13T05:14:57.510Z,6.05
2022-09-13T05:17:25.568Z,7.75
2022-09-13T05:19:53.699Z,6.85
2022-09-13T05:22:24.016Z,6.68
2022-09-13T05:24:52.099Z,7.78
2022-09-13T05:27:20.191Z,6.00
2022-09-13T05:29:48.344Z,6.97
2022-09-13T05:32:17.805Z,7.20
2022-09-13T05:34:45.909Z,6.25
2022-09-13T05:37:14.388Z,6.65
2022-09-13T05:40:07.472Z,6.88
2022-09-13T05:42:30.708Z,9.32
2022-09-13T05:44:58.809Z,9.98
2022-09-13T05:47:28.337Z,7.07
2022-09-13T05:50:09.785Z,7.28
2022-09-13T05:52:39.058Z,6.28
2022-09-13T05:55:07.487Z,6.68
2022-09-13T05:57:35.534Z,6.90
2022-09-13T06:00:04.441Z,7.43
2022-09-13T06:02:42.396Z,6.63
2022-09-13T06:05:11.398Z,6.47
2022-09-13T06:07:41.451Z,5.47
2022-09-13T06:10:10.450Z,7.60
2022-09-13T06:12:38.571Z,6.55
2022-09-13T06:15:07.561Z,10.23
2022-09-13T06:17:35.582Z,6.93
2022-09-13T06:20:05.977Z,6.15
2022-09-13T06:22:35.328Z,7.25
2022-09-13T06:25:03.603Z,5.30
2022-09-13T06:27:31.761Z,7.75
2022-09-13T06:29:59.828Z,4.88
2022-09-13T06:32:27.943Z,8.30
2022-09-13T06:34:56.027Z,8.45
2022-09-13T06:37:25.935Z,5.80
2022-09-13T06:39:54.073Z,5.38
2022-09-13T06:42:22.310Z,5.85
2022-09-13T06:44:52.102Z,6.35
2022-09-13T06:47:20.328Z,6.85
2022-09-13T06:49:48.430Z,8.02
2022-09-13T06:52:16.550Z,6.18
2022-09-13T06:54:46.170Z,12.27
2022-09-13T06:57:14.250Z,5.03
2022-09-13T06:59:42.329Z,6.65
2022-09-13T07:02:10.923Z,9.95
2022-09-13T07:04:39.006Z,9.32
2022-09-13T07:07:07.063Z,5.88
2022-09-13T07:09:35.269Z,9.50
2022-09-13T07:12:06.685Z,9.60
2022-09-13T07:14:34.824Z,10.90
2022-09-13T07:17:02.999Z,8.88
2022-09-13T07:19:31.439Z,9.77
2022-09-13T07:21:59.674Z,9.50
2022-09-13T07:24:27.957Z,10.45
2022-09-13T07:26:56.008Z,12.32
2022-09-13T07:29:25.467Z,12.50
2022-09-13T07:31:54.219Z,16.48
2022-09-13T07:34:22.989Z,14.68
2022-09-13T07:36:51.222Z,14.15
2022-09-13T07:39:22.699Z,12.82
2022-09-13T07:41:51.274Z,13.98
2022-09-13T07:44:19.369Z,16.52
2022-09-13T07:46:48.817Z,15.32
2022-09-13T07:49:18.789Z,15.13
2022-09-13T07:51:46.820Z,10.80
2022-09-13T07:54:16.107Z,18.10
2022-09-13T07:56:44.250Z,14.43
2022-09-13T07:59:13.631Z,12.13
2022-09-13T08:01:42.554Z,14.52
2022-09-13T08:04:12.695Z,13.13
2022-09-13T08:06:41.224Z,13.32
2022-09-13T08:09:09.845Z,16.00
2022-09-13T08:11:38.726Z,10.73
2022-09-13T08:14:07.250Z,16.17
2022-09-13T08:16:35.298Z,13.13
2022-09-13T08:19:04.251Z,16.27
2022-09-13T08:21:35.268Z,13.50
2022-09-13T08:24:04.026Z,17.48
2022-09-13T08:26:32.624Z,18.23
2022-09-13T08:29:01.392Z,15.52
2022-09-13T08:31:29.652Z,16.90
2022-09-13T08:33:57.955Z,15.68
2022-09-13T08:36:26.182Z,14.70
2022-09-13T08:38:57.721Z,15.80
2022-09-13T08:42:01.999Z,15.48
2022-09-13T08:44:31.147Z,15.52
2022-09-13T08:54:26.879Z,15.73
2022-09-13T08:56:58.613Z,14.65
2022-09-13T08:59:40.872Z,17.50
2022-09-13T09:02:19.457Z,14.73
2022-09-13T09:04:48.968Z,15.48
2022-09-13T09:07:18.530Z,16.05
2022-09-13T09:09:50.535Z,17.88
2022-09-13T09:12:22.244Z,19.48
2022-09-13T09:14:57.202Z,23.50
2022-09-13T09:17:26.752Z,29.50
2022-09-13T09:19:56.311Z,30.65
2022-09-13T09:22:24.999Z,37.80
2022-09-13T09:24:56.028Z,30.48
2022-09-13T09:27:24.223Z,39.45
2022-09-13T09:29:53.467Z,34.20
2022-09-13T09:32:32.215Z,44.33
2022-09-13T09:35:06.228Z,39.85
2022-09-13T09:37:34.668Z,51.15
2022-09-13T09:40:07.892Z,47.35
2022-09-13T09:42:44.707Z,48.65
2022-09-13T09:45:25.615Z,40.75
2022-09-13T09:47:53.652Z,43.58
2022-09-13T09:50:24.056Z,42.03
2022-09-13T09:52:56.751Z,48.55
2022-09-13T09:55:28.818Z,45.50
2022-09-13T09:57:58.458Z,38.47
2022-09-13T10:00:28.895Z,38.72
2022-09-13T10:02:59.587Z,43.65
2022-09-13T10:05:27.810Z,37.30
2022-09-13T10:08:00.847Z,41.55
2022-09-13T10:10:36.725Z,35.67
2022-09-13T10:13:05.482Z,35.28
2022-09-13T10:15:35.415Z,36.55
2022-09-13T10:18:33.316Z,34.85
2022-09-13T10:21:04.435Z,31.92
2022-09-13T10:23:32.922Z,34.08
2022-09-13T10:26:07.661Z,32.58
2022-09-13T10:28:37.359Z,28.90
2022-09-13T10:31:07.535Z,35.85
2022-09-13T10:33:37.057Z,37.70
2022-09-13T10:36:07.475Z,29.02
2022-09-13T10:38:37.186Z,32.80
2022-09-13T10:41:07.583Z,32.20
2022-09-13T10:43:35.828Z,28.60
2022-09-13T10:46:05.788Z,30.42
2022-09-13T10:48:45.973Z,31.10
2022-09-13T10:51:22.458Z,30.48
2022-09-13T10:53:50.628Z,22.40
2022-09-13T10:56:24.582Z,29.42
2022-09-13T10:58:53.294Z,25.27
2022-09-13T11:01:40.381Z,29.27
2022-09-13T11:04:31.896Z,28.35
2022-09-13T11:07:09.861Z,30.27
2022-09-13T11:09:39.783Z,24.75
2022-09-13T11:12:12.964Z,23.48
2022-09-13T11:14:51.029Z,28.30
2022-09-13T11:17:24.591Z,25.70
2022-09-13T11:19:59.717Z,22.50
2022-09-13T11:22:37.984Z,24.58
2022-09-13T11:25:15.119Z,19.85
2022-09-13T11:27:50.508Z,22.98
2022-09-13T11:30:19.546Z,22.70
2022-09-13T11:33:00.821Z,23.80
2022-09-13T11:35:35.830Z,21.17
2022-09-13T11:38:08.198Z,23.67
2022-09-13T11:40:40.726Z,21.52
2022-09-13T11:43:20.230Z,26.73
2022-09-13T11:45:51.410Z,18.85
2022-09-13T11:48:51.018Z,21.95
2022-09-13T11:51:22.072Z,17.90
2022-09-13T11:53:59.528Z,19.83
2022-09-13T11:56:29.222Z,17.02
2022-09-13T11:59:15.526Z,21.60
2022-09-13T12:01:46.473Z,18.40
2022-09-13T12:04:17.316Z,17.55
2022-09-13T12:06:46.412Z,14.57
2022-09-13T12:09:16.299Z,20.88
2022-09-13T12:11:46.175Z,22.00
2022-09-13T12:14:17.078Z,15.63
2022-09-13T12:16:46.097Z,17.98
2022-09-13T12:19:16.903Z,17.58
2022-09-13T12:21:44.976Z,16.08
2022-09-13T12:24:15.822Z,20.90
2022-09-13T12:26:46.304Z,16.13
2022-09-13T12:29:18.835Z,14.98
2022-09-13T12:31:47.148Z,18.80
2022-09-13T12:34:18.375Z,15.45
2022-09-13T12:37:07.554Z,17.42
2022-09-13T12:39:45.786Z,14.95
2022-09-13T12:42:39.263Z,12.85
2022-09-13T12:45:19.106Z,12.60
2022-09-13T12:48:23.499Z,15.50
2022-09-13T12:50:58.559Z,14.82
2022-09-13T12:53:41.869Z,12.23
2022-09-13T12:56:31.178Z,12.73
2022-09-13T12:59:25.143Z,15.63
2022-09-13T13:01:54.775Z,14.10
2022-09-13T13:04:24.560Z,13.02
2022-09-13T13:06:53.785Z,11.77
2022-09-13T13:09:28.587Z,16.77
2022-09-13T13:12:00.071Z,12.23
2022-09-13T13:14:45.086Z,11.82
2022-09-13T13:17:37.126Z,11.52
2022-09-13T13:20:38.447Z,16.77
2022-09-13T13:23:15.656Z,17.17
2022-09-13T13:25:58.006Z,15.57
2022-09-13T13:29:04.894Z,13.18
2022-09-13T13:31:40.563Z,17.75
2022-09-13T13:34:44.124Z,13.95
2022-09-13T13:37:29.678Z,13.63
2022-09-13T13:40:21.471Z,31.10
2022-09-13T13:42:49.674Z,13.27
2022-09-13T13:45:23.862Z,15.73
2022-09-13T13:48:11.023Z,16.77
2022-09-13T13:51:18.400Z,10.18
2022-09-13T13:53:49.960Z,13.70
2022-09-13T13:56:24.750Z,15.38
2022-09-13T13:58:55.590Z,13.90
2022-09-13T14:01:25.734Z,19.65
2022-09-13T14:04:21.121Z,13.70
2022-09-13T14:06:53.534Z,12.48
2022-09-13T14:09:33.202Z,14.63
2022-09-13T14:12:18.628Z,14.95
2022-09-13T14:14:57.808Z,8.90
2022-09-13T14:17:49.164Z,11.65
2022-09-13T14:20:17.960Z,11.45
2022-09-13T14:22:47.419Z,12.88
2022-09-13T14:25:17.697Z,10.57
2022-09-13T14:27:45.754Z,9.13
2022-09-13T14:30:19.883Z,9.07
2022-09-13T14:32:49.216Z,12.18
2022-09-13T14:35:26.409Z,11.15
2022-09-13T14:37:55.989Z,11.73
2022-09-13T14:40:26.555Z,11.70
2022-09-13T14:42:55.166Z,10.30
2022-09-13T14:45:24.818Z,10.73
2022-09-13T14:47:54.772Z,7.60
2022-09-13T14:50:25.065Z,10.00
2022-09-13T14:52:54.999Z,9.00
2022-09-13T14:55:24.460Z,8.35
2022-09-13T14:57:53.718Z,8.20
2022-09-13T15:00:22.996Z,7.22
2022-09-13T15:02:51.909Z,9.35
2022-09-13T15:05:21.053Z,9.32
2022-09-13T15:07:49.112Z,9.90
2022-09-13T15:10:25.948Z,8.13
2022-09-13T15:12:56.055Z,7.72
2022-09-13T15:15:33.192Z,8.45
2022-09-13T15:18:01.960Z,9.07
2022-09-13T15:20:30.878Z,13.07
2022-09-13T15:22:59.211Z,6.85
2022-09-13T15:25:29.484Z,10.88
2022-09-13T15:27:57.993Z,8.02
2022-09-13T15:30:27.771Z,6.78
2022-09-13T15:33:20.677Z,7.93
2022-09-13T15:35:48.917Z,8.00
2022-09-13T15:38:19.804Z,8.70
2022-09-13T15:40:59.057Z,11.45
2022-09-13T15:43:27.165Z,11.60
2022-09-13T15:45:55.213Z,8.90
2022-09-13T15:48:26.811Z,7.65
2022-09-13T15:51:06.888Z,7.95
2022-09-13T15:53:35.216Z,8.52
2022-09-13T15:56:05.107Z,10.60
2022-09-13T15:58:33.556Z,7.07
2022-09-13T16:01:01.716Z,8.10
2022-09-13T16:03:30.053Z,9.15
2022-09-13T16:05:58.111Z,6.82
2022-09-13T16:08:26.339Z,13.90
2022-09-13T16:10:54.434Z,7.45
2022-09-13T16:13:23.932Z,11.88
2022-09-13T16:15:55.912Z,9.18
2022-09-13T16:18:25.807Z,7.53
2022-09-13T16:20:53.847Z,7.65
2022-09-13T16:23:21.905Z,9.18
2022-09-13T16:25:50.377Z,8.65
2022-09-13T16:28:20.844Z,7.13
2022-09-13T16:30:50.396Z,11.93
2022-09-13T16:33:19.686Z,10.80
2022-09-13T16:35:47.773Z,13.23
2022-09-13T16:38:15.897Z,13.82
2022-09-13T16:40:45.151Z,24.30
2022-09-13T16:43:13.638Z,8.43
2022-09-13T16:45:41.927Z,11.07
2022-09-13T16:48:11.405Z,7.05
2022-09-13T16:50:40.871Z,8.75
2022-09-13T16:53:08.977Z,7.68
2022-09-13T16:55:37.488Z,8.25
2022-09-13T16:58:05.565Z,7.20
2022-09-13T17:00:33.654Z,11.30
2022-09-13T17:03:01.725Z,10.45
2022-09-13T17:05:31.770Z,8.32
2022-09-13T17:08:00.074Z,5.75
2022-09-13T17:10:28.835Z,7.68
2022-09-13T17:12:56.877Z,7.78
2022-09-13T17:15:24.950Z,8.60
2022-09-13T17:17:52.997Z,11.82
2022-09-13T17:20:21.214Z,7.00
2022-09-13T17:22:50.866Z,7.75
2022-09-13T17:25:20.818Z,11.45
2022-09-13T17:27:49.105Z,7.85
2022-09-13T17:30:17.301Z,6.25
2022-09-13T17:32:45.363Z,7.32
2022-09-13T17:35:14.134Z,9.40
2022-09-13T17:37:42.186Z,6.20
2022-09-13T17:40:11.921Z,6.50
2022-09-13T17:42:40.110Z,11.23
2022-09-13T17:45:08.682Z,7.82
2022-09-13T17:47:36.934Z,8.98
2022-09-13T17:50:05.394Z,7.20
2022-09-13T17:52:35.044Z,5.68
2022-09-13T17:55:03.618Z,5.95
2022-09-13T17:57:33.342Z,7.00
2022-09-13T18:00:01.828Z,10.15
2022-09-13T18:02:32.540Z,6.20
2022-09-13T18:05:05.127Z,8.13
2022-09-13T18:07:34.687Z,7.55
2022-09-13T18:10:03.008Z,10.65
2022-09-13T18:12:33.416Z,7.70
2022-09-13T18:15:01.863Z,8.43
2022-09-13T18:17:29.938Z,6.97
2022-09-13T18:19:57.993Z,8.43
2022-09-13T18:22:28.157Z,9.40
2022-09-13T18:24:56.313Z,5.95
2022-09-13T18:27:25.387Z,8.80
2022-09-13T18:29:54.808Z,7.28
2022-09-13T18:32:22.862Z,5.50
2022-09-13T18:34:50.958Z,8.82
2022-09-13T18:37:19.011Z,5.85
2022-09-13T18:39:47.374Z,5.70
2022-09-13T18:42:15.475Z,4.63
2022-09-13T18:44:43.951Z,5.65
2022-09-13T18:47:13.988Z,6.78
2022-09-13T18:49:42.035Z,5.38
2022-09-13T18:52:11.051Z,5.93
2022-09-13T18:54:39.382Z,6.28
2022-09-13T18:57:07.525Z,6.18
2022-09-13T18:59:35.663Z,6.93
2022-09-13T19:02:03.898Z,6.63
2022-09-13T19:04:38.181Z,6.25
2022-09-13T19:07:07.066Z,7.47
2022-09-13T19:09:35.919Z,8.55
2022-09-13T19:12:04.865Z,5.38
2022-09-13T19:14:33.168Z,6.75
2022-09-13T19:17:03.020Z,5.93
2022-09-13T19:19:33.012Z,5.97
2022-09-13T19:22:02.435Z,4.78
2022-09-13T19:24:31.148Z,8.65
2022-09-13T19:27:00.258Z,5.55
2022-09-13T19:29:28.429Z,7.03
2022-09-13T19:31:56.832Z,8.35
2022-09-13T19:34:24.942Z,6.70
2022-09-13T19:36:57.782Z,8.50
2022-09-13T19:39:30.054Z,7.22
2022-09-13T19:41:59.991Z,10.18
2022-09-13T19:44:29.324Z,12.40
2022-09-13T19:47:45.094Z,9.85
2022-09-13T19:49:50.586Z,7.65
2022-09-13T19:52:19.786Z,10.38
2022-09-13T19:54:49.176Z,5.13
2022-09-13T19:57:17.262Z,5.63
2022-09-13T19:59:45.331Z,5.97
2022-09-13T20:02:13.381Z,8.50
2022-09-13T20:04:41.924Z,5.80
2022-09-13T20:07:12.285Z,9.27
2022-09-13T20:09:42.212Z,4.72
2022-09-13T20:12:12.612Z,9.68
2022-09-13T20:14:40.713Z,10.15
2022-09-13T20:17:08.806Z,6.57
2022-09-13T20:19:43.577Z,6.43
2022-09-13T20:22:11.841Z,9.98
2022-09-13T20:24:39.908Z,5.85
2022-09-13T20:27:07.956Z,6.60
2022-09-13T20:29:37.649Z,8.57
2022-09-13T20:32:06.110Z,7.07
2022-09-13T20:34:35.212Z,8.23
2022-09-13T20:37:03.312Z,11.00
2022-09-13T20:39:31.356Z,7.97
2022-09-13T20:41:59.560Z,9.05
2022-09-13T20:44:28.161Z,7.10
2022-09-13T20:46:57.664Z,9.88
2022-09-13T20:49:26.296Z,8.35
2022-09-13T20:51:54.358Z,7.60
2022-09-13T20:54:22.412Z,7.88
2022-09-13T20:56:51.853Z,5.88
2022-09-13T20:59:21.160Z,9.93
2022-09-13T21:01:49.724Z,12.00
2022-09-13T21:04:19.222Z,6.90
2022-09-13T21:07:01.157Z,7.05
2022-09-13T21:09:29.280Z,7.03
2022-09-13T21:11:57.329Z,7.63
2022-09-13T21:14:25.451Z,7.72
2022-09-13T21:16:55.115Z,5.90
2022-09-13T21:19:26.609Z,4.93
2022-09-13T21:21:55.022Z,5.60
2022-09-13T21:24:23.070Z,6.07
2022-09-13T21:26:51.099Z,11.48
2022-09-13T21:29:19.140Z,8.77
2022-09-13T21:31:47.169Z,9.10
2022-09-13T21:34:16.326Z,9.10
2022-09-13T21:36:46.023Z,8.27
2022-09-13T21:39:14.400Z,11.80
2022-09-13T21:41:43.017Z,23.25
2022-09-13T21:44:11.250Z,12.02
2022-09-13T21:46:39.700Z,10.82
2022-09-13T21:49:10.717Z,10.95
2022-09-13T21:51:39.331Z,15.52
2022-09-13T21:54:12.519Z,16.80
2022-09-13T21:56:42.233Z,11.40
2022-09-13T21:59:14.425Z,20.88
2022-09-13T22:01:43.072Z,16.52
2022-09-13T22:04:12.394Z,12.43
2022-09-13T22:06:40.440Z,12.30
2022-09-13T22:09:10.674Z,9.85
2022-09-13T22:11:39.594Z,8.68
2022-09-13T22:14:07.939Z,11.07
2022-09-13T22:16:36.766Z,10.60
2022-09-13T22:19:08.916Z,10.63
2022-09-13T22:21:39.972Z,13.82
2022-09-13T22:24:10.033Z,10.30
2022-09-13T22:26:39.457Z,10.82
2022-09-13T22:29:07.669Z,14.18
2022-09-13T22:31:36.822Z,13.77
2022-09-13T22:34:05.046Z,10.20
2022-09-13T22:36:33.102Z,8.15
2022-09-13T22:39:01.167Z,8.10
2022-09-13T22:41:31.553Z,10.25
2022-09-13T22:43:59.782Z,9.13
2022-09-13T22:46:29.405Z,8.40
2022-09-13T22:48:57.516Z,8.10
2022-09-13T22:51:25.595Z,9.05
2022-09-13T22:53:54.541Z,11.30
2022-09-13T22:56:23.797Z,8.95
2022-09-13T22:58:55.641Z,10.40
2022-09-13T23:01:23.921Z,7.82
2022-09-13T23:03:52.603Z,7.75
2022-09-13T23:06:21.727Z,8.10
2022-09-13T23:08:50.346Z,8.18
2022-09-13T23:11:19.422Z,11.30
2022-09-13T23:13:48.399Z,17.08
2022-09-13T23:16:19.049Z,10.38
2022-09-13T23:18:47.194Z,9.20
2022-09-13T23:21:15.299Z,9.15
2022-09-13T23:23:43.405Z,7.13
2022-09-13T23:26:13.010Z,9.60
2022-09-13T23:28:41.047Z,8.40
2022-09-13T23:31:12.575Z,8.60
2022-09-13T23:33:42.884Z,6.88
2022-09-13T23:36:12.015Z,7.32
2022-09-13T23:38:40.229Z,6.85
2022-09-13T23:41:10.636Z,10.90
2022-09-13T23:43:38.674Z,5.80
2022-09-13T23:46:07.079Z,7.57
2022-09-13T23:48:35.313Z,6.88
2022-09-13T23:51:05.885Z,7.60
2022-09-13T23:53:34.005Z,5.07
2022-09-13T23:56:02.062Z,6.13
2022-09-13T23:58:30.875Z,7.30
